Time;durP1;ratioP1;P1;durP2;ratioP2;P2;SDS_P1;SDS_P2;PMS_P1;PMS_P2;Temp;Humidity;BMP_temperature;BMP_pressure;BME280_temperature;BME280_humidity;BME280_pressure;Samples;Min_cycle;Max_cycle;Signal;HPM_P1;HPM_P2
2022/01/07 00:00:33;;;;;;;17.40;5.93;;;1.10;99.90;;;;;;641925;221;26613;-78
2022/01/07 00:03:00;;;;;;;17.07;6.17;;;1.20;99.90;;;;;;641364;223;27223;-80
2022/01/07 00:05:27;;;;;;;12.37;6.50;;;1.10;99.90;;;;;;640631;223;26568;-79
2022/01/07 00:07:54;;;;;;;13.70;5.90;;;1.10;99.90;;;;;;642521;222;27219;-78
2022/01/07 00:10:22;;;;;;;8.30;5.70;;;1.20;99.90;;;;;;638794;221;26543;-79
2022/01/07 00:12:50;;;;;;;7.47;5.40;;;1.20;99.90;;;;;;639212;221;26564;-78
2022/01/07 00:15:17;;;;;;;11.13;5.63;;;1.20;99.90;;;;;;641844;219;26603;-78
2022/01/07 00:17:44;;;;;;;8.60;5.20;;;1.20;99.90;;;;;;642556;221;26577;-78
2022/01/07 00:20:12;;;;;;;11.40;5.20;;;1.10;99.90;;;;;;640311;221;26910;-79
2022/01/07 00:22:39;;;;;;;11.67;5.27;;;1.00;99.90;;;;;;644719;222;26566;-78
2022/01/07 00:25:07;;;;;;;11.23;5.50;;;1.00;99.90;;;;;;644089;217;27007;-78
2022/01/07 00:27:34;;;;;;;14.63;6.13;;;0.90;99.90;;;;;;637917;224;26542;-78
2022/01/07 00:30:02;;;;;;;8.33;5.03;;;1.00;99.90;;;;;;637935;222;26775;-79
2022/01/07 00:32:29;;;;;;;18.17;5.57;;;0.90;99.90;;;;;;637857;224;26552;-78
2022/01/07 00:34:56;;;;;;;8.40;5.50;;;0.90;99.90;;;;;;637701;225;26544;-78
2022/01/07 00:37:25;;;;;;;10.50;5.07;;;1.00;99.90;;;;;;646735;222;26538;-78
2022/01/07 00:39:52;;;;;;;7.80;5.40;;;1.00;99.90;;;;;;645145;222;26507;-78
2022/01/07 00:42:20;;;;;;;13.73;5.67;;;1.10;99.90;;;;;;639170;224;26555;-78
2022/01/07 00:44:47;;;;;;;14.60;5.67;;;1.20;99.90;;;;;;640994;224;26529;-79
2022/01/07 00:47:15;;;;;;;6.57;4.90;;;1.20;99.90;;;;;;640974;224;26982;-78
2022/01/07 00:49:41;;;;;;;13.30;5.33;;;1.20;99.90;;;;;;638211;224;26555;-79
2022/01/07 00:52:08;;;;;;;20.83;5.93;;;1.30;99.90;;;;;;637589;224;26775;-79
2022/01/07 00:54:36;;;;;;;8.77;4.83;;;1.30;99.90;;;;;;647064;222;26551;-78
2022/01/07 00:57:04;;;;;;;10.37;5.20;;;1.10;99.90;;;;;;647704;222;26535;-78
2022/01/07 00:59:32;;;;;;;8.87;4.90;;;1.10;99.90;;;;;;641508;222;26576;-78
2022/01/07 01:01:59;;;;;;;15.50;5.37;;;1.10;99.90;;;;;;641299;222;26489;-78
2022/01/07 01:04:27;;;;;;;9.60;5.20;;;1.10;99.90;;;;;;645111;222;26531;-78
2022/01/07 01:06:54;;;;;;;10.57;5.17;;;1.00;99.90;;;;;;639098;224;26783;-78
2022/01/07 01:09:22;;;;;;;10.07;4.70;;;1.10;99.90;;;;;;639577;224;26517;-79
2022/01/07 01:11:49;;;;;;;13.63;5.53;;;1.10;99.90;;;;;;639408;223;26567;-78
2022/01/07 01:14:16;;;;;;;11.50;5.07;;;1.00;99.90;;;;;;638757;225;26509;-78
2022/01/07 01:16:44;;;;;;;9.13;4.70;;;0.90;99.90;;;;;;638753;224;26801;-79
2022/01/07 01:19:11;;;;;;;9.13;5.60;;;0.90;99.90;;;;;;641601;222;26588;-78
2022/01/07 01:21:38;;;;;;;8.70;5.43;;;0.90;99.90;;;;;;637287;225;26849;-78
2022/01/07 01:24:06;;;;;;;10.10;5.20;;;1.10;99.90;;;;;;637383;224;26523;-79
2022/01/07 01:26:33;;;;;;;11.33;5.30;;;1.10;99.90;;;;;;637421;224;26792;-78
2022/01/07 01:29:00;;;;;;;8.53;4.80;;;1.00;99.90;;;;;;648168;221;26811;-79
2022/01/07 01:31:30;;;;;;;12.40;6.13;;;0.80;99.90;;;;;;650770;221;26966;-79
2022/01/07 01:33:55;;;;;;;11.27;5.47;;;0.80;99.90;;;;;;650688;221;26489;-78
2022/01/07 01:36:22;;;;;;;12.77;5.37;;;0.80;99.90;;;;;;644918;221;26752;-79
2022/01/07 01:38:50;;;;;;;12.83;5.27;;;0.70;99.90;;;;;;642184;222;26554;-78
2022/01/07 01:41:19;;;;;;;11.43;5.73;;;0.80;99.90;;;;;;647798;222;26534;-78
2022/01/07 01:43:48;;;;;;;13.43;5.70;;;0.80;99.90;;;;;;637886;225;26493;-78
2022/01/07 01:46:13;;;;;;;14.00;5.37;;;0.80;99.90;;;;;;637591;225;26494;-79
2022/01/07 01:48:40;;;;;;;11.53;5.37;;;0.90;99.90;;;;;;637526;225;26785;-78
2022/01/07 01:51:08;;;;;;;12.13;5.73;;;0.90;99.90;;;;;;637625;224;26566;-78
2022/01/07 01:53:35;;;;;;;12.10;5.60;;;0.90;99.90;;;;;;640963;222;26779;-78
2022/01/07 01:56:03;;;;;;;11.70;5.67;;;0.80;99.90;;;;;;637554;224;26520;-78
2022/01/07 01:58:30;;;;;;;10.50;5.57;;;0.80;99.90;;;;;;637534;226;26562;-78
2022/01/07 02:00:57;;;;;;;15.33;5.73;;;0.80;99.90;;;;;;640732;222;26794;-78
2022/01/07 02:03:24;;;;;;;13.10;6.63;;;0.70;99.90;;;;;;650270;221;26544;-79
2022/01/07 02:05:52;;;;;;;12.93;5.90;;;0.80;99.90;;;;;;650522;221;26479;-78
2022/01/07 02:08:20;;;;;;;11.93;5.97;;;0.70;99.90;;;;;;648035;221;26559;-79
2022/01/07 02:10:48;;;;;;;11.93;6.30;;;0.70;99.90;;;;;;647686;222;26566;-79
2022/01/07 02:13:17;;;;;;;11.47;5.80;;;0.70;99.90;;;;;;647648;222;26508;-78
2022/01/07 02:15:45;;;;;;;14.07;6.77;;;0.70;99.90;;;;;;650484;221;26502;-79
2022/01/07 02:18:12;;;;;;;14.07;6.53;;;0.70;99.90;;;;;;639158;221;26767;-78
2022/01/07 02:20:39;;;;;;;16.37;6.50;;;0.50;99.90;;;;;;639601;222;26508;-79
2022/01/07 02:23:06;;;;;;;10.93;6.73;;;0.60;99.90;;;;;;645428;220;26524;-78
2022/01/07 02:25:33;;;;;;;13.47;6.43;;;0.60;99.90;;;;;;638815;225;26476;-78
2022/01/07 02:28:01;;;;;;;16.17;7.30;;;0.50;99.90;;;;;;639812;224;26963;-79
2022/01/07 02:30:28;;;;;;;11.23;6.33;;;0.50;99.90;;;;;;641882;223;26566;-78
2022/01/07 02:32:55;;;;;;;16.77;7.33;;;0.50;99.90;;;;;;640556;223;26815;-79
2022/01/07 02:35:23;;;;;;;12.70;6.93;;;0.40;99.90;;;;;;638219;224;26483;-78
2022/01/07 02:37:51;;;;;;;11.53;6.00;;;0.40;99.90;;;;;;638137;225;26488;-79
2022/01/07 02:40:18;;;;;;;12.23;6.97;;;0.40;99.90;;;;;;644817;222;26566;-78
2022/01/07 02:42:45;;;;;;;11.07;6.13;;;0.40;99.90;;;;;;637408;224;26552;-78
2022/01/07 02:45:13;;;;;;;10.00;6.13;;;0.40;99.90;;;;;;637367;224;26843;-78
2022/01/07 02:47:55;;;;;;;12.57;7.00;;;0.20;99.90;;;;;;638252;224;26481;-78
2022/01/07 02:50:26;;;;;;;14.93;6.10;;;0.60;99.90;;;;;;639348;224;26558;-80
2022/01/07 02:52:54;;;;;;;14.47;7.20;;;0.60;99.90;;;;;;637904;225;26543;-79
2022/01/07 02:55:22;;;;;;;11.40;6.40;;;0.90;99.90;;;;;;639788;224;26536;-78
2022/01/07 02:57:49;;;;;;;12.97;6.43;;;0.80;99.90;;;;;;641171;223;26745;-78
2022/01/07 03:00:17;;;;;;;10.80;6.80;;;0.80;99.90;;;;;;640951;221;26555;-79
2022/01/07 03:02:46;;;;;;;10.40;6.40;;;0.90;99.90;;;;;;640113;224;26528;-80
2022/01/07 03:05:13;;;;;;;9.60;6.73;;;0.80;99.90;;;;;;637534;224;26524;-78
2022/01/07 03:07:41;;;;;;;11.83;6.57;;;0.90;99.90;;;;;;637548;224;26574;-78
2022/01/07 03:10:09;;;;;;;13.87;6.83;;;0.90;99.90;;;;;;637511;221;26573;-79
2022/01/07 03:12:36;;;;;;;10.23;6.97;;;0.80;99.90;;;;;;637552;224;26773;-78
2022/01/07 03:15:06;;;;;;;9.93;6.60;;;0.90;99.90;;;;;;637728;224;26558;-78
2022/01/07 03:17:33;;;;;;;11.47;6.67;;;0.90;99.90;;;;;;642777;222;26523;-78
2022/01/07 03:20:00;;;;;;;15.30;7.07;;;0.90;99.90;;;;;;639509;222;26517;-78
2022/01/07 03:22:28;;;;;;;13.60;7.23;;;0.60;99.90;;;;;;644107;222;26492;-78
2022/01/07 03:24:55;;;;;;;11.43;6.97;;;0.60;99.90;;;;;;647562;222;26782;-78
2022/01/07 03:27:23;;;;;;;10.10;7.20;;;0.60;99.90;;;;;;637551;224;26562;-78
2022/01/07 03:29:50;;;;;;;13.43;6.83;;;0.40;99.90;;;;;;639914;224;26852;-78
2022/01/07 03:32:17;;;;;;;10.87;6.53;;;0.40;99.90;;;;;;640896;224;26524;-78
2022/01/07 03:34:44;;;;;;;11.27;6.70;;;0.40;99.90;;;;;;642786;222;26571;-85
2022/01/07 03:37:12;;;;;;;10.33;6.70;;;0.50;99.90;;;;;;641617;223;26556;-80
2022/01/07 03:39:40;;;;;;;12.13;6.97;;;0.70;99.90;;;;;;641323;224;26649;-78
2022/01/07 03:42:07;;;;;;;13.57;6.70;;;0.60;99.90;;;;;;646308;222;26588;-78
2022/01/07 03:44:35;;;;;;;13.97;6.60;;;0.70;99.90;;;;;;637542;225;26729;-78
2022/01/07 03:47:02;;;;;;;10.23;6.90;;;0.80;99.90;;;;;;639076;224;26815;-79
2022/01/07 03:49:29;;;;;;;13.20;6.63;;;0.70;99.90;;;;;;640791;224;26581;-79
2022/01/07 03:51:57;;;;;;;13.00;7.20;;;0.80;99.90;;;;;;638729;222;26563;-79
2022/01/07 03:54:24;;;;;;;12.10;6.93;;;0.80;99.90;;;;;;647361;222;26568;-79
2022/01/07 03:56:53;;;;;;;10.70;7.10;;;1.00;99.90;;;;;;650098;221;26598;-75
2022/01/07 03:59:20;;;;;;;14.03;7.23;;;0.90;99.90;;;;;;650128;221;26811;-75
2022/01/07 04:01:47;;;;;;;14.40;6.33;;;0.80;99.90;;;;;;641616;221;26906;-75
2022/01/07 04:04:14;;;;;;;9.33;6.37;;;1.00;99.90;;;;;;640094;224;26592;-75
2022/01/07 04:06:42;;;;;;;11.47;7.20;;;0.80;99.90;;;;;;644532;221;26596;-75
2022/01/07 04:09:09;;;;;;;10.90;6.30;;;0.80;99.90;;;;;;637065;224;26572;-75
2022/01/07 04:11:37;;;;;;;17.37;7.30;;;1.00;99.90;;;;;;636817;224;26568;-75
2022/01/07 04:14:05;;;;;;;11.70;6.27;;;1.00;99.90;;;;;;636882;224;26827;-75
2022/01/07 04:16:32;;;;;;;11.07;7.40;;;1.10;99.90;;;;;;639589;222;26557;-75
2022/01/07 04:18:59;;;;;;;11.30;7.53;;;1.10;99.90;;;;;;640083;224;26908;-75
2022/01/07 04:21:26;;;;;;;11.30;6.93;;;1.10;99.90;;;;;;639619;224;26595;-76
2022/01/07 04:23:53;;;;;;;12.53;7.57;;;1.30;99.90;;;;;;639823;222;26805;-75
2022/01/07 04:26:21;;;;;;;11.87;6.50;;;1.30;99.90;;;;;;645622;222;26548;-75
2022/01/07 04:28:49;;;;;;;18.57;7.60;;;1.40;99.90;;;;;;640413;222;26572;-75
2022/01/07 04:31:17;;;;;;;13.30;7.80;;;1.40;99.90;;;;;;637424;224;26588;-75
2022/01/07 04:33:44;;;;;;;14.50;7.27;;;1.40;99.90;;;;;;642674;222;26827;-76
2022/01/07 04:36:12;;;;;;;10.67;6.63;;;1.50;99.90;;;;;;647034;222;26599;-75
2022/01/07 04:38:39;;;;;;;10.80;7.33;;;1.50;99.90;;;;;;641938;222;26927;-75
2022/01/07 04:41:06;;;;;;;10.60;7.00;;;1.50;99.90;;;;;;640393;222;26544;-75
2022/01/07 04:43:33;;;;;;;9.63;6.90;;;1.50;99.90;;;;;;645780;222;26798;-75
2022/01/07 04:46:01;;;;;;;8.47;6.57;;;1.40;99.90;;;;;;638514;223;26547;-75
2022/01/07 04:48:29;;;;;;;11.67;6.90;;;1.30;99.90;;;;;;638258;223;26541;-75
2022/01/07 04:50:56;;;;;;;8.23;6.60;;;1.30;99.90;;;;;;644685;221;26589;-75
2022/01/07 04:53:26;;;;;;;10.33;7.57;;;1.30;99.90;;;;;;638543;223;26575;-75
2022/01/07 04:55:53;;;;;;;9.03;7.07;;;1.40;99.90;;;;;;639215;224;26833;-76
2022/01/07 04:58:18;;;;;;;14.17;7.30;;;1.30;99.90;;;;;;642264;222;26575;-76
2022/01/07 05:00:46;;;;;;;13.67;6.40;;;1.40;99.90;;;;;;639288;223;26837;-76
2022/01/07 05:03:13;;;;;;;7.30;6.33;;;1.20;99.90;;;;;;640581;224;26596;-75
2022/01/07 05:05:42;;;;;;;11.17;6.67;;;1.30;99.90;;;;;;640754;223;26885;-76
2022/01/07 05:08:08;;;;;;;12.83;6.80;;;1.30;99.90;;;;;;645219;222;26595;-76
2022/01/07 05:10:37;;;;;;;10.00;6.70;;;1.50;99.90;;;;;;643179;222;26600;-76
2022/01/07 05:13:02;;;;;;;8.37;6.43;;;1.50;99.90;;;;;;640435;224;26814;-75
2022/01/07 05:15:30;;;;;;;8.87;6.30;;;1.60;99.90;;;;;;640272;223;26587;-76
2022/01/07 05:17:58;;;;;;;10.43;6.03;;;1.70;99.90;;;;;;637380;224;26553;-75
2022/01/07 05:20:25;;;;;;;6.63;5.87;;;1.60;99.90;;;;;;637574;224;26605;-76
2022/01/07 05:22:53;;;;;;;12.50;6.47;;;1.80;99.90;;;;;;640454;224;26774;-76
2022/01/07 05:25:21;;;;;;;10.37;6.27;;;1.50;99.90;;;;;;639736;224;26821;-76
2022/01/07 05:27:47;;;;;;;11.23;6.13;;;1.70;99.90;;;;;;638197;219;26817;-76
2022/01/07 05:30:15;;;;;;;11.13;6.87;;;1.80;99.90;;;;;;640471;224;27332;-75
2022/01/07 05:32:42;;;;;;;12.63;6.00;;;1.80;99.90;;;;;;640309;222;26602;-75
2022/01/07 05:35:10;;;;;;;7.90;6.07;;;1.70;99.90;;;;;;642072;221;26573;-75
2022/01/07 05:37:37;;;;;;;8.63;6.17;;;1.70;99.90;;;;;;636934;224;26589;-76
2022/01/07 05:40:05;;;;;;;10.17;6.30;;;1.60;99.90;;;;;;639573;224;27125;-76
2022/01/07 05:42:33;;;;;;;8.90;6.13;;;1.60;99.90;;;;;;646275;221;26563;-76
2022/01/07 05:45:01;;;;;;;9.03;5.30;;;1.60;99.90;;;;;;638967;224;26598;-75
2022/01/07 05:47:28;;;;;;;10.13;5.97;;;1.60;99.90;;;;;;637600;224;26835;-76
2022/01/07 05:49:55;;;;;;;10.17;6.33;;;1.50;99.90;;;;;;637232;222;26622;-76
2022/01/07 05:52:22;;;;;;;7.07;5.57;;;1.60;99.90;;;;;;637446;222;26811;-76
2022/01/07 05:54:50;;;;;;;7.30;5.47;;;1.70;99.90;;;;;;642658;222;26578;-76
2022/01/07 05:57:17;;;;;;;7.10;6.17;;;1.60;99.90;;;;;;648256;220;26567;-76
2022/01/07 05:59:45;;;;;;;8.37;5.80;;;1.40;99.90;;;;;;648469;221;26539;-76
2022/01/07 06:02:12;;;;;;;10.50;6.00;;;1.40;99.90;;;;;;638589;224;26602;-76
2022/01/07 06:04:39;;;;;;;10.50;6.53;;;1.40;99.90;;;;;;641821;221;26795;-76
2022/01/07 06:07:06;;;;;;;10.10;6.80;;;1.70;99.90;;;;;;645221;222;27185;-76
2022/01/07 06:09:34;;;;;;;7.60;6.80;;;1.50;99.90;;;;;;647757;221;26534;-76
2022/01/07 06:12:01;;;;;;;9.60;5.50;;;1.40;99.90;;;;;;649579;221;26785;-76
2022/01/07 06:14:29;;;;;;;9.07;5.43;;;1.80;99.90;;;;;;639961;222;26577;-76
2022/01/07 06:16:57;;;;;;;9.57;5.77;;;1.90;99.90;;;;;;643830;222;26569;-76
2022/01/07 06:19:24;;;;;;;6.23;5.27;;;1.90;99.90;;;;;;637258;222;26566;-76
2022/01/07 06:21:51;;;;;;;5.40;4.90;;;2.00;99.90;;;;;;637597;222;26690;-76
2022/01/07 06:24:18;;;;;;;8.83;5.77;;;2.10;99.90;;;;;;637297;224;26822;-76
2022/01/07 06:26:46;;;;;;;7.70;5.67;;;1.90;99.90;;;;;;642909;222;26564;-76
2022/01/07 06:29:14;;;;;;;14.03;5.53;;;1.90;99.90;;;;;;647268;222;26552;-76
2022/01/07 06:31:42;;;;;;;8.53;5.40;;;2.10;99.90;;;;;;642076;217;26589;-76
2022/01/07 06:34:09;;;;;;;10.20;6.77;;;2.10;99.90;;;;;;639315;222;27260;-76
2022/01/07 06:36:37;;;;;;;9.03;5.50;;;2.00;99.90;;;;;;639986;224;26523;-76
2022/01/07 06:39:04;;;;;;;8.27;5.10;;;1.90;99.90;;;;;;640473;224;26874;-76
2022/01/07 06:41:32;;;;;;;10.60;5.43;;;1.80;99.90;;;;;;639200;222;26583;-76
2022/01/07 06:44:00;;;;;;;6.10;4.90;;;1.80;99.90;;;;;;637007;224;26581;-76
2022/01/07 06:46:27;;;;;;;7.83;5.20;;;1.80;99.90;;;;;;643898;222;26591;-77
2022/01/07 06:48:54;;;;;;;6.77;5.20;;;1.70;99.90;;;;;;642979;222;26593;-76
2022/01/07 06:51:21;;;;;;;10.73;5.30;;;1.60;99.90;;;;;;639402;221;26801;-76
2022/01/07 06:53:48;;;;;;;11.87;5.30;;;1.50;99.90;;;;;;640472;224;26512;-76
2022/01/07 06:56:16;;;;;;;8.63;5.23;;;1.40;99.90;;;;;;638266;224;26855;-76
2022/01/07 06:58:44;;;;;;;7.67;5.00;;;1.40;99.90;;;;;;637613;222;26577;-77
2022/01/07 07:01:12;;;;;;;9.13;5.40;;;1.50;99.90;;;;;;637184;221;26612;-76
2022/01/07 07:03:40;;;;;;;10.43;5.17;;;1.50;99.90;;;;;;637062;225;26819;-76
2022/01/07 07:06:06;;;;;;;7.87;5.30;;;1.60;99.90;;;;;;636843;225;26589;-76
2022/01/07 07:08:34;;;;;;;10.63;5.30;;;1.60;99.90;;;;;;637952;223;26804;-76
2022/01/07 07:11:01;;;;;;;10.00;5.47;;;1.60;99.90;;;;;;638262;225;26617;-77
2022/01/07 07:13:29;;;;;;;8.33;5.53;;;1.60;99.90;;;;;;637892;225;26581;-76
2022/01/07 07:15:57;;;;;;;7.87;6.80;;;1.60;99.90;;;;;;641457;222;26607;-76
2022/01/07 07:18:24;;;;;;;10.17;5.60;;;1.60;99.90;;;;;;647681;221;27143;-76
2022/01/07 07:20:51;;;;;;;10.43;6.23;;;1.80;99.90;;;;;;647662;222;26539;-76
2022/01/07 07:23:19;;;;;;;9.63;5.80;;;1.70;99.90;;;;;;644439;221;27258;-77
2022/01/07 07:25:46;;;;;;;10.67;5.77;;;1.80;99.90;;;;;;638844;223;26600;-76
2022/01/07 07:28:13;;;;;;;11.17;5.67;;;1.90;99.90;;;;;;639526;224;26570;-76
2022/01/07 07:30:42;;;;;;;15.37;5.60;;;2.00;99.90;;;;;;640743;221;26580;-76
2022/01/07 07:33:31;;;;;;;9.17;6.17;;;2.00;99.90;;;;;;640709;224;26586;-76
2022/01/07 07:38:19;;;;;;;11.97;4.93;;;1.80;99.90;;;;;;640831;223;26572;-76
2022/01/07 07:40:47;;;;;;;9.87;5.40;;;1.80;99.90;;;;;;640693;221;26538;-76
2022/01/07 07:43:14;;;;;;;11.60;5.27;;;1.80;99.90;;;;;;638256;221;26571;-76
2022/01/07 07:45:42;;;;;;;10.93;5.33;;;2.00;99.90;;;;;;637735;224;26549;-79
2022/01/07 07:48:10;;;;;;;7.50;5.23;;;2.00;99.90;;;;;;640416;224;26812;-85
2022/01/07 07:50:37;;;;;;;10.83;5.30;;;2.00;99.90;;;;;;640576;221;26564;-86
2022/01/07 07:53:04;;;;;;;7.27;5.23;;;2.30;99.90;;;;;;640665;224;27251;-89
2022/01/07 07:55:32;;;;;;;10.23;5.87;;;2.30;99.90;;;;;;640158;224;26579;-81
2022/01/07 07:58:00;;;;;;;9.03;5.67;;;2.40;99.90;;;;;;638393;224;26576;-89
2022/01/07 08:00:27;;;;;;;9.77;5.77;;;2.40;99.90;;;;;;641618;222;26599;-81
2022/01/07 08:02:54;;;;;;;9.50;5.90;;;2.40;99.90;;;;;;637027;224;26568;-81
2022/01/07 08:05:22;;;;;;;14.77;5.63;;;2.50;99.90;;;;;;638498;224;26819;-81
2022/01/07 08:07:49;;;;;;;10.10;6.00;;;2.50;99.90;;;;;;640490;224;26561;-81
2022/01/07 08:10:22;;;;;;;7.03;5.53;;;2.40;99.90;;;;;;640433;224;26904;-80
2022/01/07 08:18:02;;;;;;;7.50;5.10;;;2.10;99.90;;;;;;635323;222;26594;-81
2022/01/07 08:20:30;;;;;;;9.43;5.40;;;2.00;99.90;;;;;;642248;221;26798;-81
2022/01/07 08:22:57;;;;;;;7.13;5.60;;;2.00;99.90;;;;;;648531;221;26518;-81
2022/01/07 08:25:24;;;;;;;8.37;5.70;;;2.10;99.90;;;;;;644254;221;26570;-81
2022/01/07 08:27:51;;;;;;;11.37;6.50;;;2.10;99.90;;;;;;639380;219;26564;-81
2022/01/07 08:30:25;;;;;;;10.80;6.13;;;2.40;99.90;;;;;;638006;224;26812;-81
2022/01/07 08:35:22;;;;;;;6.83;5.63;;;2.40;99.90;;;;;;650655;221;26564;-81
2022/01/07 08:37:49;;;;;;;10.13;6.13;;;2.70;99.90;;;;;;642638;221;27251;-81
2022/01/07 08:40:16;;;;;;;9.13;5.87;;;2.70;99.90;;;;;;639370;221;26578;-81
2022/01/07 08:42:43;;;;;;;9.53;5.63;;;2.70;99.90;;;;;;638086;223;26573;-82
2022/01/07 08:45:11;;;;;;;11.73;5.70;;;2.90;99.90;;;;;;640275;224;26570;-81
2022/01/07 08:47:38;;;;;;;8.60;5.30;;;2.90;99.90;;;;;;639985;224;26593;-80
2022/01/07 08:50:06;;;;;;;9.53;5.30;;;2.80;99.90;;;;;;639042;224;26580;-83
2022/01/07 08:52:36;;;;;;;8.77;5.00;;;3.10;99.90;;;;;;641602;222;26527;-85
2022/01/07 08:55:04;;;;;;;11.13;5.50;;;3.30;99.90;;;;;;645462;221;26905;-85
2022/01/07 08:57:31;;;;;;;7.87;5.80;;;3.50;99.90;;;;;;643107;222;26582;-85
2022/01/07 08:59:58;;;;;;;8.10;5.97;;;3.20;99.90;;;;;;642460;222;26834;-84
2022/01/07 09:02:26;;;;;;;7.80;5.77;;;3.20;99.90;;;;;;639917;224;26594;-85
2022/01/07 09:04:55;;;;;;;11.37;6.03;;;3.40;99.90;;;;;;640447;224;26735;-87
2022/01/07 09:07:21;;;;;;;11.33;5.73;;;3.40;99.90;;;;;;637354;224;26591;-84
2022/01/07 09:09:48;;;;;;;9.53;5.37;;;3.50;99.90;;;;;;640536;221;26600;-84
2022/01/07 09:12:15;;;;;;;8.90;6.03;;;3.20;99.90;;;;;;640592;224;26794;-84
2022/01/07 09:14:43;;;;;;;11.90;5.20;;;3.20;99.90;;;;;;638403;224;26589;-83
2022/01/07 09:17:10;;;;;;;9.13;5.43;;;3.50;99.90;;;;;;645029;219;26873;-85
2022/01/07 09:19:37;;;;;;;12.43;6.33;;;3.50;99.90;;;;;;646904;221;26850;-90
2022/01/07 09:22:04;;;;;;;7.50;5.10;;;3.80;99.90;;;;;;649968;221;26587;-80
2022/01/07 09:24:32;;;;;;;11.80;5.13;;;3.60;99.90;;;;;;638027;221;26610;-80
2022/01/07 09:26:59;;;;;;;11.17;5.60;;;3.60;99.90;;;;;;638237;224;26575;-79
2022/01/07 09:29:27;;;;;;;9.37;6.37;;;3.70;99.90;;;;;;640295;221;26573;-79
2022/01/07 09:31:54;;;;;;;9.40;6.00;;;3.50;99.90;;;;;;645457;220;26816;-77
2022/01/07 09:34:21;;;;;;;8.33;5.80;;;3.70;99.90;;;;;;648249;217;26556;-78
2022/01/07 09:36:48;;;;;;;6.60;4.90;;;3.60;99.90;;;;;;641187;221;26589;-78
2022/01/07 09:39:16;;;;;;;8.53;5.90;;;3.70;99.90;;;;;;637706;222;26562;-78
2022/01/07 09:41:44;;;;;;;8.80;5.27;;;3.70;99.90;;;;;;647449;221;26573;-78
2022/01/07 09:44:11;;;;;;;8.40;5.43;;;3.60;99.90;;;;;;647582;222;26513;-79
2022/01/07 09:46:38;;;;;;;13.33;6.17;;;3.80;99.90;;;;;;647651;217;27200;-78
2022/01/07 09:49:05;;;;;;;7.70;5.83;;;3.70;99.90;;;;;;639599;222;26506;-78
2022/01/07 09:51:32;;;;;;;8.07;5.37;;;3.80;99.90;;;;;;638087;224;26583;-78
2022/01/07 09:54:02;;;;;;;8.83;5.70;;;3.80;99.90;;;;;;640719;223;26591;-78
2022/01/07 09:56:29;;;;;;;7.97;5.87;;;3.80;99.90;;;;;;640697;223;26620;-79
2022/01/07 09:58:56;;;;;;;8.67;5.80;;;3.90;99.90;;;;;;640466;221;26814;-82
2022/01/07 10:01:25;;;;;;;7.87;5.57;;;4.20;99.90;;;;;;641668;222;26575;-82
2022/01/07 10:03:53;;;;;;;9.73;5.53;;;4.10;99.90;;;;;;647939;221;26599;-82
2022/01/07 10:06:22;;;;;;;12.80;5.87;;;4.00;99.90;;;;;;647787;221;26582;-83
2022/01/07 10:08:58;;;;;;;9.50;6.00;;;4.00;99.90;;;;;;646956;222;26571;-81
2022/01/07 10:11:25;;;;;;;11.33;5.83;;;4.10;99.90;;;;;;646968;222;26619;-82
2022/01/07 10:13:52;;;;;;;9.23;6.80;;;4.50;99.90;;;;;;647074;217;26786;-82
2022/01/07 10:16:20;;;;;;;10.00;6.67;;;4.70;99.90;;;;;;640179;222;26565;-82
2022/01/07 10:18:48;;;;;;;10.60;5.93;;;4.50;99.90;;;;;;639086;224;26566;-82
2022/01/07 10:21:16;;;;;;;9.00;5.97;;;4.80;99.90;;;;;;640404;224;26591;-81
2022/01/07 10:23:43;;;;;;;11.63;6.40;;;4.70;99.90;;;;;;649499;221;26875;-80
2022/01/07 10:26:11;;;;;;;10.10;6.20;;;4.90;99.90;;;;;;646579;221;26568;-84
2022/01/07 10:28:39;;;;;;;10.50;5.70;;;5.10;99.90;;;;;;639144;222;26612;-78
2022/01/07 10:31:06;;;;;;;10.70;5.53;;;5.10;99.90;;;;;;636932;224;26592;-77
2022/01/07 10:33:36;;;;;;;12.80;6.40;;;5.00;99.90;;;;;;637889;222;26857;-77
2022/01/07 10:36:22;;;;;;;11.10;6.30;;;5.20;99.90;;;;;;646926;222;27180;-77
2022/01/07 10:38:50;;;;;;;12.40;5.80;;;5.20;99.90;;;;;;648863;221;26788;-81
2022/01/07 10:41:18;;;;;;;11.47;5.97;;;4.80;99.90;;;;;;647199;221;26819;-82
2022/01/07 10:43:45;;;;;;;7.97;6.10;;;4.90;99.90;;;;;;648552;220;26845;-82
2022/01/07 10:46:14;;;;;;;14.83;5.87;;;4.90;99.90;;;;;;645828;221;26581;-81
2022/01/07 10:48:50;;;;;;;8.87;5.70;;;4.80;99.90;;;;;;639344;224;26588;-81
2022/01/07 10:51:15;;;;;;;6.27;5.00;;;4.80;99.90;;;;;;640430;224;26847;-82
2022/01/07 10:53:42;;;;;;;8.40;5.77;;;4.80;99.90;;;;;;649663;221;26563;-81
2022/01/07 10:56:10;;;;;;;10.80;5.67;;;4.60;99.90;;;;;;648697;221;27018;-80
2022/01/07 10:58:52;;;;;;;8.23;5.60;;;4.70;99.90;;;;;;643950;222;26560;-81
2022/01/07 11:01:27;;;;;;;7.83;5.20;;;4.70;99.90;;;;;;640631;224;26634;-82
2022/01/07 11:03:54;;;;;;;7.83;5.33;;;4.60;99.90;;;;;;638144;224;26597;-82
2022/01/07 11:06:21;;;;;;;11.47;5.90;;;5.10;99.90;;;;;;641290;222;26567;-82
2022/01/07 11:08:49;;;;;;;8.43;5.27;;;5.10;99.90;;;;;;643836;222;26910;-82
2022/01/07 11:11:16;;;;;;;9.40;5.83;;;5.10;99.90;;;;;;647466;222;26978;-83
2022/01/07 11:13:43;;;;;;;11.83;5.13;;;4.90;99.90;;;;;;649665;221;26579;-82
2022/01/07 11:16:10;;;;;;;7.30;5.63;;;4.90;99.90;;;;;;649706;216;26535;-83
2022/01/07 11:18:38;;;;;;;8.33;5.40;;;4.80;99.90;;;;;;642739;221;26553;-81
2022/01/07 11:21:05;;;;;;;6.30;5.17;;;4.80;99.90;;;;;;637070;225;26632;-82
2022/01/07 11:23:33;;;;;;;9.97;6.00;;;4.70;99.90;;;;;;640418;224;26561;-81
2022/01/07 11:26:01;;;;;;;11.63;6.67;;;4.70;99.90;;;;;;640410;224;26841;-82
2022/01/07 11:28:28;;;;;;;9.80;6.00;;;4.70;99.90;;;;;;638779;224;26795;-81
2022/01/07 11:31:04;;;;;;;11.30;6.10;;;4.60;99.90;;;;;;637112;224;26613;-81
2022/01/07 11:33:31;;;;;;;7.73;5.50;;;4.70;99.90;;;;;;637220;224;26558;-82
2022/01/07 11:35:58;;;;;;;9.10;5.73;;;4.70;99.90;;;;;;640471;224;26585;-81
2022/01/07 11:38:34;;;;;;;8.53;5.60;;;4.80;99.90;;;;;;640434;224;26569;-80
2022/01/07 11:41:02;;;;;;;9.10;6.10;;;4.70;99.90;;;;;;640478;224;26607;-81
2022/01/07 11:43:32;;;;;;;11.07;6.30;;;4.60;99.90;;;;;;640555;224;26560;-81
2022/01/07 11:46:00;;;;;;;9.30;5.70;;;4.50;99.90;;;;;;640394;224;26557;-82
2022/01/07 11:48:30;;;;;;;8.37;5.67;;;4.50;99.90;;;;;;640534;224;26798;-82
2022/01/07 11:51:11;;;;;;;13.50;7.03;;;4.60;99.90;;;;;;638094;221;26580;-82
2022/01/07 11:54:02;;;;;;;11.67;5.80;;;4.40;99.90;;;;;;647123;222;26515;-82
2022/01/07 11:56:28;;;;;;;8.73;6.00;;;4.40;99.90;;;;;;648077;221;26900;-83
2022/01/07 11:58:56;;;;;;;12.87;6.43;;;4.30;99.90;;;;;;648361;222;26563;-83
2022/01/07 12:01:23;;;;;;;12.43;6.87;;;4.20;99.90;;;;;;648135;222;26605;-82
2022/01/07 12:03:52;;;;;;;13.07;7.03;;;4.20;99.90;;;;;;648007;221;26791;-83
2022/01/07 12:06:36;;;;;;;10.90;6.47;;;4.40;99.90;;;;;;640244;222;26583;-83
2022/01/07 12:09:10;;;;;;;10.77;6.97;;;4.30;99.90;;;;;;638027;224;26591;-82
2022/01/07 12:11:41;;;;;;;10.27;6.30;;;4.20;99.90;;;;;;637754;225;26732;-82
2022/01/07 12:14:14;;;;;;;10.97;6.43;;;4.20;99.90;;;;;;637514;224;26851;-81
2022/01/07 12:16:40;;;;;;;15.57;6.77;;;4.40;99.90;;;;;;637341;225;26834;-82
2022/01/07 12:19:27;;;;;;;20.53;7.87;;;4.30;99.90;;;;;;640035;224;26585;-83
2022/01/07 12:21:54;;;;;;;12.37;6.80;;;4.50;99.90;;;;;;638824;222;26569;-82
2022/01/07 12:24:21;;;;;;;9.30;6.20;;;4.60;99.90;;;;;;638958;224;26805;-82
2022/01/07 12:27:07;;;;;;;14.77;7.33;;;4.70;99.90;;;;;;640745;224;26556;-83
2022/01/07 12:29:35;;;;;;;11.30;6.60;;;4.90;99.90;;;;;;640174;224;27258;-81
2022/01/07 12:32:05;;;;;;;9.30;6.37;;;4.80;99.90;;;;;;637100;225;26549;-83
2022/01/07 12:34:31;;;;;;;10.23;6.63;;;4.80;99.90;;;;;;637111;225;26596;-84
2022/01/07 12:36:58;;;;;;;10.67;6.20;;;4.60;99.90;;;;;;637169;225;26577;-84
2022/01/07 12:39:28;;;;;;;10.60;6.53;;;4.60;99.90;;;;;;640081;222;26572;-83
2022/01/07 12:41:56;;;;;;;8.50;6.53;;;4.60;99.90;;;;;;640496;224;26516;-83
2022/01/07 12:44:23;;;;;;;16.17;7.63;;;4.60;99.90;;;;;;640656;224;26970;-84
2022/01/07 12:46:52;;;;;;;9.30;6.53;;;4.80;99.90;;;;;;640710;224;26516;-84
2022/01/07 12:49:19;;;;;;;13.27;6.83;;;4.90;99.90;;;;;;640464;222;26567;-81
2022/01/07 12:51:52;;;;;;;13.53;7.10;;;5.20;99.90;;;;;;639455;224;26805;-83
2022/01/07 12:54:19;;;;;;;10.63;6.97;;;4.90;99.90;;;;;;636756;224;27337;-82
2022/01/07 12:56:46;;;;;;;9.17;6.37;;;4.70;99.90;;;;;;639325;220;26750;-81
2022/01/07 12:59:16;;;;;;;11.00;7.07;;;4.70;99.90;;;;;;640528;224;26512;-83
2022/01/07 13:01:42;;;;;;;17.97;8.00;;;4.60;99.90;;;;;;640482;224;26504;-82
2022/01/07 13:04:10;;;;;;;12.63;6.73;;;4.60;99.90;;;;;;640588;224;26770;-82